Palonegro Airport
SKBG : now visible

Airfield :











YOU CAN JOIN US ON...

 
LOGIN :

Register | Disclaimer

   EN    FR    IT 

 









Legend :    VFR   Marginal VFR   IFR   Intensive IFR   Very Intensive IFR
Visi :
Ceiling :
>= 8 km
>= 3000ft
5 to 8 km
1000 to 3000 ft
1500m to 5 km
500 to 1000 ft
800 to 1500m
200 to 500 ft
< 800m
< 200 ft
Symbols :   Thunderstorms  Fog  Heavy snow  Heavy precipitations  Wind > 20 kt






- Airport Elevation : 3897 ft
- IATA code : BGA


SKBG - Palonegro

CURRENT METAR :
  • 260000Z 32005KT 9999 SCT010 SCT025 22/21 A2995

EXPIRED METARs :
  • 252300Z 33004KT 9999 SCT012 SCT030 23/21 A2994
  • 252200Z 32006KT 9999 BKN015 25/20 A2992

TAF TAF SKBG
Valid from the 26 at 00:00 until the 27 at 00:00 UTC


252230Z 2600/2624 33008KT 9999 BKN015
BECMG 2602/2604 36010KT
PROB40
TEMPO 2603/2606 5000 RADZ BKN014
BECMG 2606/2608 08007KT
TEMPO 2609/2612 5000 BCFG TX28/2518Z TN18/2610Z



MET'MAP, your aeronautical weather chart ! - Copyright ORBIFLY December 2007 - Disclaimer

ORBIFLY MET'MAP TEAM :

Programming & Development : Alexandra Zaïnal
Concept & original design : Baudouin d'Aumeries
Assistance for programming : Marc-Olivier Méhu
Technical & hardware support : Manuel Goepfert

Contact : metmap@orbifly.com




SOURCES & CREDITS :

   NOAA       Earth
Advisory